createdAt,value
2023-04-22T00:00:48.789Z,99.90
2023-04-22T00:03:36.560Z,99.90
2023-04-22T00:06:24.338Z,99.90
2023-04-22T00:09:12.059Z,99.90
2023-04-22T00:11:59.684Z,99.90
2023-04-22T00:14:47.096Z,99.90
2023-04-22T00:17:34.704Z,99.90
2023-04-22T00:20:22.724Z,99.90
2023-04-22T00:23:13.103Z,99.90
2023-04-22T00:26:02.169Z,99.90
2023-04-22T00:28:49.667Z,99.90
2023-04-22T00:31:37.242Z,99.90
2023-04-22T00:34:24.752Z,99.90
2023-04-22T00:37:12.486Z,99.90
2023-04-22T00:40:00.018Z,99.90
2023-04-22T00:42:51.066Z,99.90
2023-04-22T00:45:40.111Z,99.90
2023-04-22T00:48:28.973Z,99.90
2023-04-22T00:51:16.685Z,99.90
2023-04-22T00:54:06.095Z,99.90
2023-04-22T00:56:53.719Z,99.90
2023-04-22T00:59:42.695Z,99.90
2023-04-22T01:02:30.706Z,99.90
2023-04-22T01:05:18.513Z,99.90
2023-04-22T01:08:05.936Z,99.90
2023-04-22T01:10:54.197Z,99.90
2023-04-22T01:13:42.632Z,99.90
2023-04-22T01:16:34.316Z,99.90
2023-04-22T01:19:22.661Z,99.90
2023-04-22T01:22:14.302Z,99.90
2023-04-22T01:25:04.030Z,99.90
2023-04-22T01:27:51.888Z,99.90
2023-04-22T01:30:40.906Z,99.90
2023-04-22T01:33:28.790Z,99.90
2023-04-22T01:36:17.727Z,99.90
2023-04-22T01:39:05.341Z,99.90
2023-04-22T01:41:53.681Z,99.90
2023-04-22T01:44:41.966Z,99.90
2023-04-22T01:47:30.004Z,99.90
2023-04-22T01:50:17.955Z,99.90
2023-04-22T01:53:08.823Z,99.90
2023-04-22T01:55:56.501Z,99.90
2023-04-22T01:58:44.464Z,99.90
2023-04-22T02:01:31.920Z,99.90
2023-04-22T02:04:19.950Z,99.90
2023-04-22T02:07:07.443Z,99.90
2023-04-22T02:09:55.082Z,99.90
2023-04-22T02:12:42.518Z,99.90
2023-04-22T02:15:30.666Z,99.90
2023-04-22T02:18:19.671Z,99.90
2023-04-22T02:21:07.132Z,99.90
2023-04-22T02:23:54.603Z,99.90
2023-04-22T02:26:43.555Z,99.90
2023-04-22T02:29:32.298Z,99.90
2023-04-22T02:32:19.833Z,99.90
2023-04-22T02:35:08.029Z,99.90
2023-04-22T02:37:55.671Z,99.90
2023-04-22T02:40:43.225Z,99.90
2023-04-22T02:43:30.707Z,99.90
2023-04-22T02:46:18.197Z,99.90
2023-04-22T02:49:05.888Z,99.90
2023-04-22T02:51:53.374Z,99.90
2023-04-22T02:54:40.893Z,99.90
2023-04-22T02:57:28.400Z,99.90
2023-04-22T03:00:16.076Z,99.90
2023-04-22T03:03:03.749Z,99.90
2023-04-22T03:05:51.380Z,99.90
2023-04-22T03:08:38.797Z,99.90
2023-04-22T03:11:26.733Z,99.90
2023-04-22T03:14:14.177Z,99.90
2023-04-22T03:17:01.764Z,99.90
2023-04-22T03:19:49.353Z,99.90
2023-04-22T03:22:36.810Z,99.90
2023-04-22T03:25:24.303Z,99.90
2023-04-22T03:28:11.859Z,99.90
2023-04-22T03:30:59.325Z,99.90
2023-04-22T03:33:46.772Z,99.90
2023-04-22T03:36:34.260Z,99.90
2023-04-22T03:39:21.922Z,99.90
2023-04-22T03:42:11.211Z,99.90
2023-04-22T03:44:58.875Z,99.90
2023-04-22T03:47:46.390Z,99.90
2023-04-22T03:50:34.305Z,99.90
2023-04-22T03:53:21.853Z,99.90
2023-04-22T03:56:09.290Z,99.90
2023-04-22T03:58:56.704Z,99.90
2023-04-22T04:01:46.595Z,99.90
2023-04-22T04:04:35.188Z,99.90
2023-04-22T04:07:23.014Z,99.90
2023-04-22T04:10:12.020Z,99.90
2023-04-22T04:12:59.453Z,99.90
2023-04-22T04:15:47.455Z,99.90
2023-04-22T04:18:34.949Z,99.90
2023-04-22T04:21:22.425Z,99.90
2023-04-22T04:24:09.811Z,99.90
2023-04-22T04:26:58.244Z,99.90
2023-04-22T04:29:45.739Z,99.90
2023-04-22T04:32:34.524Z,99.90
2023-04-22T04:35:22.109Z,99.90
2023-04-22T04:38:09.613Z,99.90
2023-04-22T04:40:57.109Z,99.90
2023-04-22T04:43:46.628Z,99.90
2023-04-22T04:46:34.865Z,99.90
2023-04-22T04:49:22.952Z,99.90
2023-04-22T04:52:11.974Z,99.90
2023-04-22T04:54:59.605Z,99.90
2023-04-22T04:57:47.655Z,99.90
2023-04-22T05:00:35.135Z,99.90
2023-04-22T05:03:22.756Z,99.90
2023-04-22T05:06:10.765Z,99.90
2023-04-22T05:08:58.737Z,99.90
2023-04-22T05:11:46.157Z,99.90
2023-04-22T05:14:33.667Z,99.90
2023-04-22T05:17:21.840Z,99.90
2023-04-22T05:20:09.915Z,99.90
2023-04-22T05:22:57.406Z,99.90
2023-04-22T05:25:45.064Z,99.90
2023-04-22T05:28:32.477Z,99.90
2023-04-22T05:31:20.025Z,99.90
2023-04-22T05:34:07.779Z,99.90
2023-04-22T05:36:55.768Z,99.90
2023-04-22T05:39:43.198Z,99.90
2023-04-22T05:42:30.665Z,99.90
2023-04-22T05:45:18.342Z,99.90
2023-04-22T05:48:05.997Z,99.90
2023-04-22T05:50:54.540Z,99.90
2023-04-22T05:53:45.101Z,99.90
2023-04-22T05:56:32.757Z,99.90
2023-04-22T05:59:21.663Z,99.90
2023-04-22T06:02:09.466Z,99.90
2023-04-22T06:04:57.333Z,99.90
2023-04-22T06:07:45.357Z,99.90
2023-04-22T06:10:32.871Z,99.90
2023-04-22T06:13:20.332Z,99.90
2023-04-22T06:18:56.458Z,99.90
2023-04-22T06:21:43.979Z,99.90
2023-04-22T06:24:31.509Z,99.90
2023-04-22T06:27:19.032Z,99.90
2023-04-22T06:30:07.687Z,99.90
2023-04-22T06:32:56.536Z,99.90
2023-04-22T06:35:44.333Z,99.90
2023-04-22T06:38:31.928Z,99.90
2023-04-22T06:41:19.568Z,99.90
2023-04-22T06:44:07.004Z,99.90
2023-04-22T06:46:55.877Z,99.90
2023-04-22T06:49:45.640Z,99.90
2023-04-22T06:52:33.196Z,99.90
2023-04-22T06:55:21.036Z,99.90
2023-04-22T06:58:09.230Z,99.90
2023-04-22T07:00:56.672Z,99.90
2023-04-22T07:03:44.328Z,99.90
2023-04-22T07:06:31.781Z,99.90
2023-04-22T07:09:19.270Z,99.90
2023-04-22T07:12:06.880Z,99.90
2023-04-22T07:14:54.424Z,99.90
2023-04-22T07:17:42.811Z,99.90
2023-04-22T07:20:30.400Z,99.90
2023-04-22T07:23:18.688Z,99.90
2023-04-22T07:26:06.281Z,99.90
2023-04-22T07:28:53.786Z,99.90
2023-04-22T07:31:41.622Z,99.90
2023-04-22T07:34:29.120Z,99.90
2023-04-22T07:37:16.637Z,99.90
2023-04-22T07:40:04.542Z,99.90
2023-04-22T07:42:52.067Z,99.90
2023-04-22T07:45:39.776Z,99.90
2023-04-22T07:48:27.363Z,99.90
2023-04-22T07:51:15.106Z,99.90
2023-04-22T07:54:02.578Z,99.90
2023-04-22T07:56:50.051Z,99.90
2023-04-22T07:59:37.613Z,99.90
2023-04-22T08:02:25.584Z,99.90
2023-04-22T08:05:13.331Z,99.90
2023-04-22T08:08:00.929Z,99.90
2023-04-22T08:10:48.476Z,99.90
2023-04-22T08:13:35.973Z,99.90
2023-04-22T08:16:23.608Z,99.90
2023-04-22T08:19:11.884Z,99.90
2023-04-22T08:21:59.336Z,99.90
2023-04-22T08:24:46.799Z,99.90
2023-04-22T08:27:34.341Z,99.90
2023-04-22T08:30:22.014Z,99.90
2023-04-22T08:33:09.560Z,99.90
2023-04-22T08:35:57.221Z,99.90
2023-04-22T08:38:44.777Z,99.90
2023-04-22T08:41:36.275Z,99.90
2023-04-22T08:44:24.272Z,99.90
2023-04-22T08:47:15.012Z,99.90
2023-04-22T08:50:04.419Z,99.90
2023-04-22T08:52:51.999Z,99.90
2023-04-22T08:55:43.690Z,99.90
2023-04-22T08:58:34.194Z,99.90
2023-04-22T09:01:23.562Z,99.90
2023-04-22T09:04:14.778Z,99.90
2023-04-22T09:07:03.495Z,99.90
2023-04-22T09:09:51.914Z,99.90
2023-04-22T09:12:41.059Z,99.90
2023-04-22T09:15:30.404Z,99.90
2023-04-22T09:18:19.520Z,99.90
2023-04-22T09:21:07.158Z,99.90
2023-04-22T09:23:56.954Z,99.90
2023-04-22T09:26:44.510Z,99.90
2023-04-22T09:29:32.094Z,99.90
2023-04-22T09:32:20.088Z,99.90
2023-04-22T09:35:08.243Z,99.90
2023-04-22T09:37:57.049Z,99.90
2023-04-22T09:40:44.908Z,99.90
2023-04-22T09:43:33.381Z,99.90
2023-04-22T09:46:24.470Z,99.90
2023-04-22T09:49:12.236Z,99.90
2023-04-22T09:51:59.754Z,99.90
2023-04-22T09:54:54.568Z,99.90
2023-04-22T09:57:43.593Z,99.90
2023-04-22T10:00:31.939Z,99.90
2023-04-22T10:03:19.798Z,99.90
2023-04-22T10:06:07.930Z,99.90
2023-04-22T10:08:55.775Z,99.90
2023-04-22T10:11:43.828Z,99.90
2023-04-22T10:14:31.336Z,99.90
2023-04-22T10:17:20.312Z,99.90
2023-04-22T10:20:17.394Z,99.90
2023-04-22T10:23:20.320Z,99.90
2023-04-22T10:26:07.787Z,99.90
2023-04-22T10:28:58.232Z,99.90
2023-04-22T10:32:17.990Z,99.90
2023-04-22T10:35:12.634Z,99.90
2023-04-22T10:38:00.220Z,99.90
2023-04-22T10:41:00.656Z,99.90
2023-04-22T10:43:58.373Z,99.90
2023-04-22T10:46:54.836Z,99.90
2023-04-22T10:49:44.461Z,99.90
2023-04-22T10:52:32.452Z,99.90
2023-04-22T10:55:20.254Z,99.90
2023-04-22T10:58:24.605Z,99.90
2023-04-22T11:01:16.100Z,99.90
2023-04-22T11:04:23.627Z,99.90
2023-04-22T11:07:26.988Z,99.90
2023-04-22T11:10:35.708Z,99.90
2023-04-22T11:13:23.505Z,99.90
2023-04-22T11:16:11.593Z,99.90
2023-04-22T11:18:59.840Z,99.90
2023-04-22T11:21:48.970Z,99.90
2023-04-22T11:24:37.638Z,99.90
2023-04-22T11:27:26.966Z,98.30
2023-04-22T11:30:23.974Z,99.90
2023-04-22T11:33:16.474Z,99.90
2023-04-22T11:36:04.429Z,99.90
2023-04-22T11:38:56.631Z,99.90
2023-04-22T11:41:44.202Z,99.90
2023-04-22T11:44:31.629Z,99.90
2023-04-22T11:47:19.723Z,99.90
2023-04-22T11:50:12.322Z,99.30
2023-04-22T11:53:19.906Z,99.90
2023-04-22T11:56:07.510Z,99.60
2023-04-22T11:58:55.116Z,97.70
2023-04-22T12:01:44.757Z,99.40
2023-04-22T12:04:42.421Z,98.40
2023-04-22T12:07:30.168Z,98.20
2023-04-22T12:10:17.742Z,98.40
2023-04-22T12:13:05.150Z,98.60
2023-04-22T12:16:02.937Z,98.40
2023-04-22T12:18:56.312Z,97.20
2023-04-22T12:21:43.972Z,97.90
2023-04-22T12:24:31.481Z,97.60
2023-04-22T12:27:19.016Z,96.70
2023-04-22T12:30:07.475Z,97.00
2023-04-22T12:32:55.120Z,96.60
2023-04-22T12:35:42.664Z,98.70
2023-04-22T12:38:30.436Z,98.40
2023-04-22T12:41:17.926Z,97.40
2023-04-22T12:44:05.644Z,97.80
2023-04-22T12:46:53.364Z,97.40
2023-04-22T12:49:41.435Z,95.70
2023-04-22T12:52:29.419Z,95.60
2023-04-22T12:55:18.236Z,96.10
2023-04-22T12:58:05.906Z,95.10
2023-04-22T13:00:53.463Z,95.50
2023-04-22T13:03:40.972Z,94.90
2023-04-22T13:06:29.249Z,96.30
2023-04-22T13:09:17.415Z,96.70
2023-04-22T13:12:05.238Z,95.50
2023-04-22T13:14:52.731Z,95.80
2023-04-22T13:17:40.769Z,95.70
2023-04-22T13:20:28.282Z,95.10
2023-04-22T13:23:17.166Z,96.30
2023-04-22T13:26:05.048Z,97.40
2023-04-22T13:28:52.637Z,95.60
2023-04-22T13:31:44.507Z,94.80
2023-04-22T13:34:32.055Z,98.10
2023-04-22T13:37:21.749Z,92.10
2023-04-22T13:40:09.950Z,91.40
2023-04-22T13:42:57.591Z,91.00
2023-04-22T13:45:45.710Z,93.90
2023-04-22T13:48:33.243Z,93.00
2023-04-22T13:51:20.867Z,92.60
2023-04-22T13:54:08.485Z,93.60
2023-04-22T13:56:55.940Z,94.00
2023-04-22T13:59:43.424Z,93.20
2023-04-22T14:02:30.992Z,92.00
2023-04-22T14:05:18.686Z,93.30
2023-04-22T14:08:06.512Z,93.90
2023-04-22T14:10:55.060Z,94.50
2023-04-22T14:13:42.693Z,93.30
2023-04-22T14:16:30.177Z,93.90
2023-04-22T14:19:17.788Z,94.30
2023-04-22T14:22:05.700Z,93.30
2023-04-22T14:24:53.284Z,93.00
2023-04-22T14:27:40.778Z,95.60
2023-04-22T14:30:28.342Z,93.00
2023-04-22T14:33:15.946Z,93.60
2023-04-22T14:36:03.698Z,92.30
2023-04-22T14:38:51.257Z,94.90
2023-04-22T14:41:39.083Z,92.70
2023-04-22T14:44:26.977Z,91.80
2023-04-22T14:47:14.464Z,92.80
2023-04-22T14:50:02.626Z,90.00
2023-04-22T14:52:51.702Z,90.30
2023-04-22T14:55:39.312Z,88.70
2023-04-22T14:58:31.311Z,90.80
2023-04-22T15:01:20.819Z,91.50
2023-04-22T15:04:08.414Z,90.80
2023-04-22T15:06:57.730Z,90.60
2023-04-22T15:09:45.201Z,90.20
2023-04-22T15:12:32.705Z,89.00
2023-04-22T15:15:21.448Z,90.00
2023-04-22T15:18:09.181Z,86.60
2023-04-22T15:20:56.644Z,87.50
2023-04-22T15:23:44.251Z,88.20
2023-04-22T15:26:32.605Z,88.00
2023-04-22T15:29:21.199Z,90.40
2023-04-22T15:32:08.658Z,91.50
2023-04-22T15:34:56.190Z,91.10
2023-04-22T15:37:45.925Z,91.20
2023-04-22T15:40:33.545Z,89.60
2023-04-22T15:43:21.150Z,88.40
2023-04-22T15:46:09.872Z,89.70
2023-04-22T15:48:57.678Z,90.30
2023-04-22T15:51:45.330Z,90.80
2023-04-22T15:54:32.943Z,90.00
2023-04-22T15:57:20.496Z,91.00
2023-04-22T16:00:13.686Z,90.90
2023-04-22T16:03:02.994Z,88.90
2023-04-22T16:05:50.599Z,88.20
2023-04-22T16:08:41.173Z,89.70
2023-04-22T16:11:30.323Z,90.10
2023-04-22T16:14:18.069Z,88.70
2023-04-22T16:17:06.649Z,89.50
2023-04-22T16:19:55.422Z,88.50
2023-04-22T16:22:42.819Z,87.90
2023-04-22T16:25:30.413Z,89.30
2023-04-22T16:28:18.052Z,89.20
2023-04-22T16:31:05.606Z,90.40
2023-04-22T16:33:53.198Z,90.20
2023-04-22T16:36:41.578Z,89.70
2023-04-22T16:39:30.447Z,89.10
2023-04-22T16:42:18.121Z,90.10
2023-04-22T16:45:06.750Z,90.30
2023-04-22T16:47:54.228Z,88.70
2023-04-22T16:50:41.797Z,87.40
2023-04-22T16:53:30.008Z,88.80
2023-04-22T16:56:17.399Z,88.20
2023-04-22T16:59:05.002Z,88.70
2023-04-22T17:01:52.499Z,88.50
2023-04-22T17:04:40.018Z,90.10
2023-04-22T17:07:27.461Z,90.50
2023-04-22T17:10:14.935Z,88.90
2023-04-22T17:13:03.123Z,90.00
2023-04-22T17:15:50.778Z,90.60
2023-04-22T17:18:38.573Z,91.10
2023-04-22T17:21:27.142Z,91.10
2023-04-22T17:24:14.651Z,91.30
2023-04-22T17:27:03.023Z,91.20
2023-04-22T17:29:50.666Z,91.90
2023-04-22T17:32:38.244Z,92.30
2023-04-22T17:35:25.963Z,92.20
2023-04-22T17:38:14.175Z,92.30
2023-04-22T17:41:01.741Z,92.60
2023-04-22T17:43:49.210Z,93.40
2023-04-22T17:46:36.805Z,93.30
2023-04-22T17:49:24.409Z,93.70
2023-04-22T17:52:12.032Z,94.50
2023-04-22T17:55:00.012Z,95.30
2023-04-22T17:57:47.631Z,95.10
2023-04-22T18:00:37.678Z,96.10
2023-04-22T18:03:26.372Z,96.40
2023-04-22T18:06:14.051Z,97.20
2023-04-22T18:09:01.651Z,97.40
2023-04-22T18:11:49.259Z,98.40
2023-04-22T18:14:36.861Z,99.70
2023-04-22T18:17:24.611Z,99.90
2023-04-22T18:20:18.560Z,99.90
2023-04-22T18:23:06.685Z,99.90
2023-04-22T18:25:54.572Z,99.90
2023-04-22T18:28:43.589Z,99.90
2023-04-22T18:31:31.138Z,99.90
2023-04-22T18:34:18.648Z,99.90
2023-04-22T18:37:06.082Z,99.90
2023-04-22T18:39:53.513Z,99.90
2023-04-22T18:42:44.734Z,99.90
2023-04-22T18:45:32.463Z,99.90
2023-04-22T18:48:20.500Z,99.90
2023-04-22T18:51:08.387Z,99.90
2023-04-22T18:53:56.492Z,99.90
2023-04-22T18:56:43.981Z,99.90
2023-04-22T18:59:31.511Z,99.90
2023-04-22T19:02:19.205Z,99.90
2023-04-22T19:05:07.037Z,99.90
2023-04-22T19:07:54.801Z,99.90
2023-04-22T19:10:42.277Z,99.90
2023-04-22T19:13:30.375Z,99.90
2023-04-22T19:16:18.165Z,99.90
2023-04-22T19:19:06.351Z,99.90
2023-04-22T19:21:53.911Z,99.90
2023-04-22T19:24:41.662Z,99.90
2023-04-22T19:27:29.217Z,99.90
2023-04-22T19:30:16.759Z,99.90
2023-04-22T19:33:04.400Z,99.90
2023-04-22T19:35:51.885Z,99.90
2023-04-22T19:38:39.417Z,99.90
2023-04-22T19:41:26.981Z,99.90
2023-04-22T19:44:14.493Z,99.90
2023-04-22T19:47:02.061Z,99.90
2023-04-22T19:49:50.179Z,99.90
2023-04-22T19:52:40.454Z,99.90
2023-04-22T19:55:28.352Z,99.90
2023-04-22T19:58:17.204Z,99.90
2023-04-22T20:01:04.944Z,99.90
2023-04-22T20:03:53.734Z,99.90
2023-04-22T20:06:47.553Z,99.90
2023-04-22T20:09:36.765Z,99.90
2023-04-22T20:12:28.730Z,99.90
2023-04-22T20:15:16.797Z,99.90
2023-04-22T20:18:04.573Z,99.90
2023-04-22T20:20:57.447Z,99.90
2023-04-22T20:23:46.987Z,99.90
2023-04-22T20:26:34.591Z,99.90
2023-04-22T20:29:23.387Z,99.90
2023-04-22T20:32:11.421Z,99.90
2023-04-22T20:34:59.672Z,99.90
2023-04-22T20:37:48.646Z,99.90
2023-04-22T20:40:36.639Z,99.90
2023-04-22T20:43:24.220Z,99.90
2023-04-22T20:46:11.646Z,99.90
2023-04-22T20:48:59.452Z,99.90
2023-04-22T20:51:47.088Z,99.90
2023-04-22T20:54:36.254Z,99.90
2023-04-22T20:57:23.840Z,99.90
2023-04-22T21:00:12.230Z,99.90
2023-04-22T21:03:00.981Z,99.90
2023-04-22T21:05:48.981Z,99.90
2023-04-22T21:08:39.451Z,99.90
2023-04-22T21:11:28.774Z,99.90
2023-04-22T21:14:18.560Z,99.90
2023-04-22T21:17:23.123Z,99.90
2023-04-22T21:20:12.330Z,99.90
2023-04-22T21:23:01.857Z,99.90
2023-04-22T21:25:51.999Z,99.90
2023-04-22T21:28:41.653Z,99.90
2023-04-22T21:31:29.526Z,99.90
2023-04-22T21:34:16.938Z,99.90
2023-04-22T21:37:07.122Z,99.90
2023-04-22T21:39:55.593Z,99.90
2023-04-22T21:42:43.061Z,99.90
2023-04-22T21:45:31.310Z,99.90
2023-04-22T21:48:18.762Z,99.90
2023-04-22T21:51:06.382Z,99.90
2023-04-22T21:53:53.920Z,99.90
2023-04-22T21:56:41.581Z,99.90
2023-04-22T21:59:29.044Z,99.90
2023-04-22T22:02:16.719Z,99.90
2023-04-22T22:05:05.056Z,99.90
2023-04-22T22:07:53.109Z,99.90
2023-04-22T22:10:43.279Z,99.90
2023-04-22T22:13:31.028Z,99.90
2023-04-22T22:16:19.336Z,99.90
2023-04-22T22:19:06.941Z,99.90
2023-04-22T22:21:54.416Z,99.90
2023-04-22T22:24:42.189Z,99.90
2023-04-22T22:27:29.910Z,99.90
2023-04-22T22:30:21.538Z,99.90
2023-04-22T22:33:09.071Z,99.90
2023-04-22T22:35:57.063Z,99.90
2023-04-22T22:38:44.570Z,99.90
2023-04-22T22:41:32.001Z,99.90
2023-04-22T22:44:19.407Z,99.90
2023-04-22T22:47:06.983Z,99.90
2023-04-22T22:49:54.461Z,99.90
2023-04-22T22:52:42.064Z,99.90
2023-04-22T22:55:29.492Z,99.90
2023-04-22T22:58:16.982Z,99.90
2023-04-22T23:01:05.214Z,99.90
2023-04-22T23:03:52.995Z,99.90
2023-04-22T23:06:40.699Z,99.90
2023-04-22T23:09:28.601Z,99.90
2023-04-22T23:12:16.086Z,99.90
2023-04-22T23:15:04.627Z,99.90
2023-04-22T23:17:52.490Z,99.90
2023-04-22T23:20:41.845Z,99.90
2023-04-22T23:23:30.965Z,99.90
2023-04-22T23:26:19.147Z,99.90
2023-04-22T23:29:07.983Z,99.90
2023-04-22T23:31:57.162Z,99.90
2023-04-22T23:34:49.992Z,99.90
2023-04-22T23:37:38.484Z,99.90
2023-04-22T23:40:25.983Z,99.90
2023-04-22T23:43:13.497Z,99.90
2023-04-22T23:46:03.587Z,99.90
2023-04-22T23:48:51.435Z,99.90
2023-04-22T23:51:38.995Z,99.90
2023-04-22T23:54:27.734Z,99.90
2023-04-22T23:57:16.536Z,99.90
